La Quiaca, Argentina
Current Conditions -  °F | °C
As of 2:00 PM on Thursday 30 Oct 2014 (Local Time) from SLTJ Reporting Station
Few Clouds Few Clouds  
Wind Chill: 27°   Ceiling: Unl
Heat Index: 28°   Visibility: 6mi
Dew Point: 17°   Wind: 12mph
Humidity: 54%   Direction: 120°ESE
Pressure: 29.91"   Gusts: NA
Location:  22.11°S, 65.59°W
Report Text: SLTJ 301700Z 12010KT 9999 FEW033 FEW036TCU 27/17 Q1013
Loading
Personal Weather Stations






























Interactive Weather Map
Tropical Storm Tracking
New forecast layout! Learn more

10-Day Weather Forecast

Advertisements
Track Severe Weather on mobile